Time;durP1;ratioP1;P1;durP2;ratioP2;P2;SDS_P1;SDS_P2;PMS_P1;PMS_P2;Temp;Humidity;BMP_temperature;BMP_pressure;BME280_temperature;BME280_humidity;BME280_pressure;Samples;Min_cycle;Max_cycle;Signal;HPM_P1;HPM_P2
2023/04/20 00:00:22;;;;;;;2.92;1.95;;;9.00;42.40;;;;;;5049524;28;20786;-66
2023/04/20 00:02:49;;;;;;;3.30;2.05;;;9.00;42.50;;;;;;5040393;28;20143;-66
2023/04/20 00:05:14;;;;;;;3.35;1.95;;;9.00;42.60;;;;;;5048809;28;20524;-68
2023/04/20 00:07:40;;;;;;;3.17;2.17;;;8.90;42.70;;;;;;5048784;28;20032;-65
2023/04/20 00:10:07;;;;;;;4.65;1.98;;;8.90;42.90;;;;;;5051672;28;20364;-65
2023/04/20 00:12:33;;;;;;;3.00;1.90;;;8.90;43.00;;;;;;5044429;28;20032;-68
2023/04/20 00:14:58;;;;;;;3.38;1.90;;;8.90;43.10;;;;;;5045670;28;20036;-65
2023/04/20 00:17:24;;;;;;;4.55;2.00;;;8.80;43.20;;;;;;5048782;28;20029;-65
2023/04/20 00:19:50;;;;;;;1.98;1.77;;;8.80;43.20;;;;;;5047426;28;20071;-66
2023/04/20 00:22:15;;;;;;;3.83;1.80;;;8.80;43.40;;;;;;5049070;28;20453;-67
2023/04/20 00:24:41;;;;;;;3.15;1.80;;;8.80;43.50;;;;;;5048734;28;20025;-65
2023/04/20 00:27:06;;;;;;;2.00;1.80;;;8.70;43.60;;;;;;5054090;28;20445;-66
2023/04/20 00:29:32;;;;;;;3.50;2.20;;;8.70;43.70;;;;;;5051094;28;20372;-66
2023/04/20 00:31:58;;;;;;;3.97;1.90;;;8.70;43.70;;;;;;5049143;28;20029;-68
2023/04/20 00:34:23;;;;;;;3.15;1.90;;;8.70;43.90;;;;;;5052885;28;20111;-66
2023/04/20 00:36:49;;;;;;;2.42;2.00;;;8.60;43.90;;;;;;5057117;28;20491;-65
2023/04/20 00:39:15;;;;;;;3.00;2.22;;;8.60;44.00;;;;;;5049249;28;20021;-66
2023/04/20 00:41:40;;;;;;;3.25;2.17;;;8.60;44.10;;;;;;5060621;28;20028;-66
2023/04/20 00:44:12;;;;;;;2.85;2.05;;;8.60;44.30;;;;;;5051169;28;20025;-69
2023/04/20 00:46:38;;;;;;;;;;;8.50;44.30;;;;;;5059662;28;20048;-68
2023/04/20 00:49:04;;;;;;;2.72;2.10;;;8.50;44.40;;;;;;5051380;28;20303;-67
2023/04/20 00:51:30;;;;;;;3.17;1.92;;;8.50;44.60;;;;;;5057885;28;20025;-68
2023/04/20 00:53:57;;;;;;;3.95;2.50;;;8.50;44.80;;;;;;5051596;28;20021;-67
2023/04/20 00:56:22;;;;;;;3.22;2.25;;;8.40;44.90;;;;;;5057199;28;20095;-68
2023/04/20 00:58:48;;;;;;;3.25;2.10;;;8.40;44.90;;;;;;5047342;28;20076;-66
2023/04/20 01:01:16;;;;;;;3.88;2.28;;;8.40;45.10;;;;;;5058172;28;20028;-66
2023/04/20 01:03:42;;;;;;;3.90;2.35;;;8.40;45.30;;;;;;5045601;28;20036;-67
2023/04/20 01:06:09;;;;;;;4.13;2.20;;;8.40;45.40;;;;;;5052698;28;20068;-66
2023/04/20 01:08:43;;;;;;;3.40;2.40;;;8.40;45.60;;;;;;5049493;28;20091;-68
2023/04/20 01:11:09;;;;;;;3.90;2.30;;;8.40;45.90;;;;;;5052933;28;20447;-67
2023/04/20 01:13:37;;;;;;;2.65;2.20;;;8.30;46.00;;;;;;5051137;28;20036;-66
2023/04/20 01:16:02;;;;;;;3.65;2.08;;;8.40;46.10;;;;;;5049925;28;20025;-66
2023/04/20 01:18:28;;;;;;;4.80;2.33;;;8.40;46.50;;;;;;5050913;28;20505;-68
2023/04/20 01:20:53;;;;;;;2.90;2.58;;;8.40;46.70;;;;;;5050534;28;20037;-69
2023/04/20 01:23:19;;;;;;;3.95;2.53;;;8.40;47.40;;;;;;5054482;28;20028;-65
2023/04/20 01:25:45;;;;;;;4.78;2.75;;;8.50;47.40;;;;;;5051335;28;20510;-68
2023/04/20 01:28:13;;;;;;;4.43;2.50;;;8.50;48.20;;;;;;5044091;28;20028;-65
2023/04/20 01:30:38;;;;;;;3.20;2.53;;;8.60;48.50;;;;;;5052982;28;20021;-67
2023/04/20 01:33:04;;;;;;;4.57;2.70;;;8.60;48.40;;;;;;5049733;28;20124;-65
2023/04/20 01:35:29;;;;;;;3.17;2.53;;;8.70;48.90;;;;;;5050755;28;20053;-67
2023/04/20 01:37:55;;;;;;;3.60;2.60;;;8.70;49.10;;;;;;5054248;28;20060;-65
2023/04/20 01:40:20;;;;;;;4.82;2.28;;;8.80;49.50;;;;;;5051840;28;20091;-67
2023/04/20 01:42:46;;;;;;;5.03;3.00;;;8.80;49.70;;;;;;5054700;28;20025;-66
2023/04/20 01:45:12;;;;;;;4.20;2.67;;;8.80;50.10;;;;;;5051187;28;20107;-67
2023/04/20 01:47:37;;;;;;;5.70;2.75;;;8.80;50.20;;;;;;5055636;28;20547;-66
2023/04/20 01:50:03;;;;;;;4.90;2.85;;;8.80;50.50;;;;;;5048460;28;20052;-65
2023/04/20 01:52:28;;;;;;;3.53;2.65;;;8.80;50.90;;;;;;5052120;28;20036;-66
2023/04/20 01:54:54;;;;;;;4.20;2.72;;;8.80;51.10;;;;;;5044462;28;20037;-68
2023/04/20 01:57:19;;;;;;;4.13;2.70;;;8.80;51.30;;;;;;5057811;28;20111;-67
2023/04/20 01:59:45;;;;;;;4.03;2.75;;;8.70;51.60;;;;;;5050787;28;20071;-66
2023/04/20 02:02:11;;;;;;;4.68;2.70;;;8.70;51.60;;;;;;5051411;28;20487;-67
2023/04/20 02:04:36;;;;;;;6.32;2.80;;;8.70;51.90;;;;;;5055967;28;20112;-67
2023/04/20 02:07:02;;;;;;;4.38;2.80;;;8.70;52.90;;;;;;5058411;28;20032;-67
2023/04/20 02:09:27;;;;;;;3.15;2.45;;;8.60;52.80;;;;;;5050859;28;20048;-66
2023/04/20 02:11:53;;;;;;;5.80;2.70;;;8.60;52.80;;;;;;5053078;28;20021;-65
2023/04/20 02:14:19;;;;;;;4.82;2.60;;;8.60;53.10;;;;;;5049364;28;20036;-67
2023/04/20 02:16:45;;;;;;;3.72;3.00;;;8.60;52.90;;;;;;5042500;28;20029;-67
2023/04/20 02:19:11;;;;;;;3.17;2.45;;;8.60;53.20;;;;;;5052786;28;20056;-67
2023/04/20 02:21:36;;;;;;;4.55;2.58;;;8.60;53.10;;;;;;5049994;28;20492;-68
2023/04/20 02:24:02;;;;;;;5.50;3.03;;;8.50;53.40;;;;;;5040904;28;20017;-66
2023/04/20 02:26:28;;;;;;;4.55;3.03;;;8.60;53.50;;;;;;5054180;28;20075;-65
2023/04/20 02:28:53;;;;;;;3.95;2.60;;;8.60;53.50;;;;;;5030712;28;20480;-66
2023/04/20 02:31:19;;;;;;;3.70;2.40;;;8.60;53.90;;;;;;5048707;28;20025;-67
2023/04/20 02:33:46;;;;;;;5.35;2.75;;;8.60;54.50;;;;;;5040703;28;20041;-66
2023/04/20 02:36:12;;;;;;;4.13;2.85;;;8.60;54.00;;;;;;5064257;28;20037;-66
2023/04/20 02:38:37;;;;;;;5.82;3.20;;;8.60;54.10;;;;;;5054027;28;20064;-67
2023/04/20 02:41:03;;;;;;;3.92;2.90;;;8.60;54.60;;;;;;5050666;28;20029;-65
2023/04/20 02:43:29;;;;;;;3.95;2.90;;;8.60;54.80;;;;;;5051441;28;20028;-66
2023/04/20 02:45:54;;;;;;;4.88;2.72;;;8.70;54.80;;;;;;5044291;28;20037;-66
2023/04/20 02:48:20;;;;;;;5.85;3.00;;;8.70;54.90;;;;;;5050930;28;20463;-65
2023/04/20 02:50:46;;;;;;;4.93;2.95;;;8.70;54.90;;;;;;5049548;28;20021;-66
2023/04/20 02:53:11;;;;;;;5.05;2.97;;;8.70;55.30;;;;;;5057152;28;20039;-65
2023/04/20 02:55:37;;;;;;;3.28;2.85;;;8.80;55.40;;;;;;5049883;28;20025;-65
2023/04/20 02:58:03;;;;;;;6.20;3.00;;;8.80;55.40;;;;;;5051096;28;20479;-66
2023/04/20 03:00:28;;;;;;;4.90;3.10;;;8.80;55.50;;;;;;5051173;28;20024;-67
2023/04/20 03:02:54;;;;;;;3.45;2.65;;;8.80;56.20;;;;;;5039668;28;20031;-64
2023/04/20 03:05:19;;;;;;;5.55;3.00;;;8.90;55.50;;;;;;5049442;28;20025;-64
2023/04/20 03:07:45;;;;;;;3.95;2.90;;;8.90;55.60;;;;;;5053380;28;20039;-64
2023/04/20 03:10:11;;;;;;;5.15;2.97;;;8.90;55.60;;;;;;5051571;28;20107;-67
2023/04/20 03:12:36;;;;;;;5.28;3.30;;;8.90;55.80;;;;;;5051026;28;20083;-67
2023/04/20 03:15:05;;;;;;;3.67;2.67;;;8.90;55.80;;;;;;5046763;28;20037;-65
2023/04/20 03:17:30;;;;;;;4.70;2.60;;;8.90;56.40;;;;;;5051125;28;20032;-65
2023/04/20 03:19:56;;;;;;;3.40;2.60;;;8.90;56.30;;;;;;5054028;28;20033;-65
2023/04/20 03:22:21;;;;;;;4.38;3.13;;;8.90;56.10;;;;;;5049629;28;20017;-66
2023/04/20 03:24:47;;;;;;;3.40;2.85;;;9.00;56.40;;;;;;5044547;28;20069;-68
2023/04/20 03:27:13;;;;;;;4.18;2.58;;;8.90;56.30;;;;;;5042819;28;20031;-66
2023/04/20 03:29:38;;;;;;;6.05;3.10;;;9.00;56.20;;;;;;5053428;28;20071;-66
2023/04/20 03:32:04;;;;;;;5.65;2.80;;;9.00;56.20;;;;;;5048772;28;20033;-66
2023/04/20 03:34:30;;;;;;;5.60;3.65;;;9.00;56.20;;;;;;5045624;28;20036;-67
2023/04/20 03:36:56;;;;;;;4.70;2.90;;;9.00;56.70;;;;;;5047182;28;20029;-67
2023/04/20 03:39:21;;;;;;;5.10;2.80;;;9.00;56.60;;;;;;5049644;28;20095;-67
2023/04/20 03:41:47;;;;;;;3.92;2.72;;;9.00;56.40;;;;;;5047459;28;20040;-66
2023/04/20 03:44:13;;;;;;;4.65;2.60;;;9.00;56.20;;;;;;5048445;28;20025;-66
2023/04/20 03:46:39;;;;;;;7.30;2.83;;;9.10;56.40;;;;;;5064364;28;20029;-67
2023/04/20 03:49:05;;;;;;;3.72;2.80;;;9.10;56.30;;;;;;5048945;28;20037;-66
2023/04/20 03:51:31;;;;;;;4.47;3.10;;;9.10;56.50;;;;;;5049455;28;20025;-66
2023/04/20 03:53:56;;;;;;;3.83;2.70;;;9.10;56.50;;;;;;5053338;28;20040;-68
2023/04/20 03:56:22;;;;;;;3.70;2.67;;;9.10;56.40;;;;;;5056380;28;20028;-66
2023/04/20 03:58:47;;;;;;;5.15;3.00;;;9.10;56.40;;;;;;5052533;28;20025;-65
2023/04/20 04:01:14;;;;;;;4.53;2.88;;;9.10;56.40;;;;;;5049256;28;20027;-67
2023/04/20 04:03:40;;;;;;;4.57;3.13;;;9.10;56.40;;;;;;5054479;28;20032;-66
2023/04/20 04:06:06;;;;;;;4.95;3.00;;;9.10;56.50;;;;;;5053760;28;20036;-67
2023/04/20 04:08:31;;;;;;;5.25;2.72;;;9.20;56.50;;;;;;5050912;28;20061;-65
2023/04/20 04:10:57;;;;;;;4.53;3.03;;;9.10;56.60;;;;;;5049890;28;20049;-66
2023/04/20 04:13:23;;;;;;;4.75;2.80;;;9.10;56.60;;;;;;5050357;28;20479;-67
2023/04/20 04:15:49;;;;;;;4.68;2.78;;;9.10;56.90;;;;;;5049782;28;20056;-66
2023/04/20 04:18:14;;;;;;;5.50;3.00;;;9.10;56.90;;;;;;5049568;28;20025;-66
2023/04/20 04:20:40;;;;;;;4.65;2.72;;;9.10;57.10;;;;;;5038321;28;20017;-67
2023/04/20 04:23:05;;;;;;;4.70;2.88;;;9.10;57.10;;;;;;5051393;28;20025;-66
2023/04/20 04:25:31;;;;;;;4.13;2.90;;;9.10;57.40;;;;;;5063523;28;20025;-66
2023/04/20 04:27:57;;;;;;;4.60;2.55;;;9.10;57.40;;;;;;5049631;28;20448;-67
2023/04/20 04:30:23;;;;;;;4.55;2.53;;;9.10;57.50;;;;;;5065443;28;20062;-68
2023/04/20 04:32:49;;;;;;;4.30;2.78;;;9.10;57.30;;;;;;5069246;28;20372;-66
2023/04/20 04:35:15;;;;;;;3.88;2.65;;;9.10;57.40;;;;;;5049606;28;20033;-66
2023/04/20 04:37:41;;;;;;;4.53;2.53;;;9.10;57.40;;;;;;5049402;28;20033;-67
2023/04/20 04:40:07;;;;;;;5.30;2.72;;;9.10;57.30;;;;;;5043959;28;20053;-66
2023/04/20 04:42:34;;;;;;;4.95;2.53;;;9.10;57.30;;;;;;5063926;28;20021;-67
2023/04/20 04:45:01;;;;;;;3.35;2.42;;;9.10;57.30;;;;;;5050128;28;20021;-67
2023/04/20 04:47:28;;;;;;;2.85;2.53;;;9.20;57.20;;;;;;5049466;28;20409;-67
2023/04/20 04:49:54;;;;;;;4.10;2.80;;;9.20;57.30;;;;;;5049504;28;20028;-67
2023/04/20 04:52:19;;;;;;;2.90;2.60;;;9.10;57.50;;;;;;5049802;28;20029;-68
2023/04/20 04:54:45;;;;;;;4.45;2.58;;;9.20;57.70;;;;;;5049499;28;20033;-66
2023/04/20 04:57:11;;;;;;;4.60;2.60;;;9.20;57.60;;;;;;5048985;28;20025;-66
2023/04/20 04:59:37;;;;;;;3.60;2.80;;;9.20;57.50;;;;;;5049667;28;20032;-66
2023/04/20 05:02:02;;;;;;;7.75;3.28;;;9.20;57.60;;;;;;5049443;28;20092;-66
2023/04/20 05:04:28;;;;;;;5.15;2.35;;;9.20;58.00;;;;;;5053992;28;20031;-68
2023/04/20 05:06:53;;;;;;;4.63;3.28;;;9.20;57.80;;;;;;5050967;28;20087;-65
2023/04/20 05:09:19;;;;;;;3.90;2.63;;;9.20;58.10;;;;;;5061525;28;20025;-66
2023/04/20 05:11:45;;;;;;;3.63;2.78;;;9.20;58.40;;;;;;5073320;28;20036;-66
2023/04/20 05:14:10;;;;;;;4.93;2.83;;;9.20;58.00;;;;;;5054458;28;20053;-68
2023/04/20 05:16:36;;;;;;;5.70;2.65;;;9.20;57.90;;;;;;5052925;28;20027;-66
2023/04/20 05:19:02;;;;;;;3.33;2.60;;;9.30;57.80;;;;;;5052396;28;20036;-65
2023/04/20 05:21:28;;;;;;;4.18;2.72;;;9.40;57.70;;;;;;5053165;28;20017;-66
2023/04/20 05:23:53;;;;;;;4.82;2.80;;;9.40;57.60;;;;;;5053415;28;20025;-65
2023/04/20 05:26:19;;;;;;;5.00;3.33;;;9.40;57.70;;;;;;5052700;28;20127;-68
2023/04/20 05:28:44;;;;;;;3.47;2.67;;;9.40;57.80;;;;;;5068194;28;20036;-68
2023/04/20 05:31:10;;;;;;;5.97;2.70;;;9.40;57.80;;;;;;5067863;28;20568;-66
2023/04/20 05:33:35;;;;;;;3.80;2.72;;;9.40;57.90;;;;;;5059261;28;20514;-66
2023/04/20 05:36:01;;;;;;;4.32;2.40;;;9.50;57.80;;;;;;5059468;28;20124;-67
2023/04/20 05:38:27;;;;;;;4.88;2.67;;;9.50;57.80;;;;;;5052333;28;20071;-64
2023/04/20 05:40:52;;;;;;;3.90;2.67;;;9.60;57.70;;;;;;5063769;28;20074;-66
2023/04/20 05:43:18;;;;;;;4.30;2.88;;;9.60;57.70;;;;;;5062210;28;20040;-66
2023/04/20 05:45:45;;;;;;;5.40;3.20;;;9.60;58.00;;;;;;5057964;28;20028;-65
2023/04/20 05:48:11;;;;;;;3.65;2.72;;;9.50;58.20;;;;;;5051923;28;20039;-65
2023/04/20 05:50:36;;;;;;;4.45;2.80;;;9.60;58.30;;;;;;5060092;28;20024;-65
2023/04/20 05:53:02;;;;;;;4.18;2.72;;;9.60;58.20;;;;;;5050337;28;20025;-66
2023/04/20 05:55:27;;;;;;;4.38;2.72;;;9.70;58.60;;;;;;5052067;28;20021;-66
2023/04/20 05:57:53;;;;;;;3.92;2.65;;;9.70;57.90;;;;;;5052139;28;20025;-64
2023/04/20 06:00:19;;;;;;;5.35;2.70;;;9.80;57.70;;;;;;5055494;28;20047;-65
2023/04/20 06:02:45;;;;;;;4.15;2.75;;;9.80;57.80;;;;;;5062322;28;20083;-65
2023/04/20 06:05:11;;;;;;;5.47;3.33;;;9.80;57.80;;;;;;5051941;28;20029;-67
2023/04/20 06:07:37;;;;;;;5.28;2.92;;;9.70;58.20;;;;;;5057092;28;20394;-65
2023/04/20 06:10:03;;;;;;;4.70;2.83;;;9.70;58.30;;;;;;5048744;28;20078;-65
2023/04/20 06:12:29;;;;;;;5.18;3.20;;;9.80;58.30;;;;;;5043779;28;20025;-66
2023/04/20 06:14:56;;;;;;;6.25;2.95;;;9.80;58.40;;;;;;5052779;28;20060;-65
2023/04/20 06:17:21;;;;;;;5.47;3.20;;;9.90;58.30;;;;;;5060169;28;20029;-66
2023/04/20 06:19:47;;;;;;;3.78;2.92;;;10.00;58.10;;;;;;5050184;28;20028;-66
2023/04/20 06:22:13;;;;;;;5.35;3.17;;;10.20;57.70;;;;;;5048129;28;20036;-65
2023/04/20 06:24:41;;;;;;;4.18;3.10;;;10.20;57.50;;;;;;5051061;28;20025;-68
2023/04/20 06:27:07;;;;;;;3.30;2.63;;;10.20;57.60;;;;;;5054387;28;20033;-68
2023/04/20 06:29:32;;;;;;;4.50;3.35;;;10.30;57.50;;;;;;5051323;28;20025;-68
2023/04/20 06:31:58;;;;;;;5.47;3.15;;;10.50;57.70;;;;;;5051160;28;20606;-68
2023/04/20 06:34:23;;;;;;;4.88;3.17;;;10.90;57.10;;;;;;5062818;28;20024;-68
2023/04/20 06:36:49;;;;;;;5.75;3.38;;;11.30;55.70;;;;;;5052312;28;20391;-67
2023/04/20 06:39:16;;;;;;;6.78;3.70;;;11.70;54.90;;;;;;5031698;28;20128;-69
2023/04/20 06:41:42;;;;;;;8.48;3.92;;;11.80;53.80;;;;;;5059082;28;20123;-68
2023/04/20 06:44:07;;;;;;;4.63;3.33;;;11.90;53.80;;;;;;5044902;28;20131;-67
2023/04/20 06:46:33;;;;;;;5.60;4.00;;;11.80;53.60;;;;;;5051945;28;20434;-66
2023/04/20 06:48:58;;;;;;;6.28;4.30;;;12.40;53.00;;;;;;5048004;28;20059;-67
2023/04/20 06:51:26;;;;;;;6.53;4.15;;;12.50;51.90;;;;;;5050476;28;20171;-66
2023/04/20 06:53:52;;;;;;;7.13;3.90;;;12.70;51.40;;;;;;5051110;28;20021;-67
2023/04/20 06:56:17;;;;;;;7.05;4.13;;;12.50;52.00;;;;;;5053189;28;20031;-67
2023/04/20 06:58:43;;;;;;;5.63;3.60;;;11.90;52.70;;;;;;5050289;28;20376;-69
2023/04/20 07:01:08;;;;;;;6.70;4.30;;;11.50;53.90;;;;;;5031278;28;20370;-68
2023/04/20 07:03:34;;;;;;;4.82;3.50;;;11.20;54.60;;;;;;5048993;28;20527;-68
2023/04/20 07:06:00;;;;;;;6.75;4.10;;;11.00;55.10;;;;;;5049230;28;20066;-67
2023/04/20 07:08:25;;;;;;;6.18;4.00;;;10.80;55.90;;;;;;5034111;28;20116;-69
2023/04/20 07:10:51;;;;;;;6.40;3.60;;;10.60;56.80;;;;;;5047812;28;20021;-70
2023/04/20 07:13:16;;;;;;;6.53;3.80;;;10.50;57.10;;;;;;5047007;28;20036;-69
2023/04/20 07:15:44;;;;;;;4.85;3.97;;;10.40;57.70;;;;;;5047770;28;20049;-69
2023/04/20 07:18:10;;;;;;;5.05;3.40;;;10.20;58.40;;;;;;5051895;28;20033;-69
2023/04/20 07:20:36;;;;;;;5.28;4.05;;;10.20;58.50;;;;;;5050305;28;20691;-69
2023/04/20 07:23:01;;;;;;;7.30;4.10;;;10.20;58.80;;;;;;5052240;28;20017;-70
2023/04/20 07:25:27;;;;;;;6.70;4.50;;;10.10;59.40;;;;;;5048305;28;20033;-70
2023/04/20 07:27:52;;;;;;;6.07;4.18;;;10.00;59.60;;;;;;5049404;28;20040;-65
2023/04/20 07:30:18;;;;;;;6.20;4.10;;;10.10;59.40;;;;;;5050446;28;20059;-69
2023/04/20 07:32:44;;;;;;;5.28;4.50;;;10.10;59.30;;;;;;5049201;28;20048;-68
2023/04/20 07:35:10;;;;;;;6.15;4.00;;;10.00;59.40;;;;;;5047797;28;20021;-69
2023/04/20 07:37:35;;;;;;;5.97;3.83;;;9.90;59.80;;;;;;5053285;28;20523;-68
2023/04/20 07:40:04;;;;;;;8.38;4.60;;;9.90;60.00;;;;;;5049426;28;20057;-68
2023/04/20 07:42:32;;;;;;;9.90;4.85;;;9.90;60.20;;;;;;5051936;28;20096;-70
2023/04/20 07:44:57;;;;;;;6.03;4.75;;;9.80;60.40;;;;;;5050567;28;20024;-68
2023/04/20 07:47:23;;;;;;;6.55;4.43;;;10.00;60.40;;;;;;5031995;28;20032;-69
2023/04/20 07:49:48;;;;;;;5.85;4.10;;;10.00;60.50;;;;;;5049966;28;20108;-69
2023/04/20 07:52:14;;;;;;;5.80;4.45;;;10.10;60.60;;;;;;5045512;28;20376;-68
2023/04/20 07:54:39;;;;;;;7.65;4.30;;;10.40;59.80;;;;;;5046992;28;20112;-69
2023/04/20 07:57:05;;;;;;;5.10;4.07;;;10.30;59.90;;;;;;5047801;28;20634;-70
2023/04/20 07:59:31;;;;;;;6.75;4.90;;;10.50;59.80;;;;;;5047889;28;20743;-68
2023/04/20 08:02:01;;;;;;;7.00;4.90;;;10.40;59.70;;;;;;5032985;28;20383;-69
2023/04/20 08:04:27;;;;;;;8.77;5.05;;;10.30;59.90;;;;;;5043658;28;20029;-70
2023/04/20 08:06:52;;;;;;;6.30;5.00;;;10.20;60.10;;;;;;5059317;28;20472;-70
2023/04/20 08:09:19;;;;;;;6.78;4.75;;;10.20;60.50;;;;;;5049021;28;20028;-70
2023/04/20 08:11:45;;;;;;;6.10;4.28;;;10.20;60.50;;;;;;5046782;28;20032;-66
2023/04/20 08:14:11;;;;;;;6.20;4.20;;;10.30;60.20;;;;;;5047840;28;20029;-71
2023/04/20 08:16:37;;;;;;;6.28;4.38;;;10.40;60.10;;;;;;5048210;28;20017;-68
2023/04/20 08:19:08;;;;;;;6.93;4.35;;;10.40;60.10;;;;;;5047239;28;20059;-70
2023/04/20 08:21:35;;;;;;;6.63;4.63;;;10.40;60.10;;;;;;5044412;28;20045;-68
2023/04/20 08:24:00;;;;;;;5.53;4.20;;;10.40;60.10;;;;;;5050613;28;20039;-69
2023/04/20 08:26:26;;;;;;;5.10;3.85;;;10.50;60.30;;;;;;5029167;28;20025;-69
2023/04/20 08:28:52;;;;;;;5.15;4.00;;;10.60;60.10;;;;;;5046124;28;20063;-70
2023/04/20 08:31:17;;;;;;;8.32;5.20;;;10.70;60.10;;;;;;5032341;28;20064;-69
2023/04/20 08:33:43;;;;;;;8.98;5.20;;;10.60;59.70;;;;;;5029758;28;20433;-69
2023/04/20 08:36:09;;;;;;;5.20;4.20;;;10.50;59.90;;;;;;5028976;28;20021;-69
2023/04/20 08:38:35;;;;;;;8.63;5.35;;;10.50;60.20;;;;;;5045076;28;20013;-67
2023/04/20 08:41:01;;;;;;;8.10;5.32;;;10.30;60.40;;;;;;5041564;28;20110;-68
2023/04/20 08:43:26;;;;;;;7.15;4.97;;;10.10;61.10;;;;;;5027099;28;20059;-69
2023/04/20 08:45:58;;;;;;;7.13;5.72;;;10.10;61.50;;;;;;5048357;28;20343;-67
2023/04/20 08:48:25;;;;;;;;;;;10.00;62.00;;;;;;5049085;28;20399;-68
2023/04/20 08:50:51;;;;;;;7.65;4.75;;;10.00;62.40;;;;;;5049994;28;20558;-69
2023/04/20 08:53:16;;;;;;;8.07;5.00;;;10.00;62.70;;;;;;5060243;28;20029;-68
2023/04/20 08:55:43;;;;;;;5.10;4.00;;;10.20;62.40;;;;;;5050502;28;20711;-69
2023/04/20 08:58:08;;;;;;;7.65;4.70;;;10.30;61.90;;;;;;5033826;28;20021;-68
2023/04/20 09:00:34;;;;;;;5.75;4.40;;;10.40;61.90;;;;;;5030304;28;20082;-70
2023/04/20 09:03:00;;;;;;;6.43;4.32;;;10.40;62.00;;;;;;5048649;28;20083;-68
2023/04/20 09:05:30;;;;;;;5.15;3.58;;;10.60;61.60;;;;;;5039497;28;20025;-69
2023/04/20 09:08:00;;;;;;;5.28;3.95;;;10.70;61.10;;;;;;5046870;28;20037;-68
2023/04/20 09:10:37;;;;;;;7.78;5.43;;;10.80;60.70;;;;;;5027188;28;20033;-68
2023/04/20 09:13:02;;;;;;;8.35;5.63;;;10.90;60.60;;;;;;5034756;28;20032;-69
2023/04/20 09:15:29;;;;;;;7.07;4.70;;;10.60;60.80;;;;;;5050577;28;20032;-70
2023/04/20 09:17:55;;;;;;;7.20;4.47;;;10.40;61.40;;;;;;5051849;28;20028;-70
2023/04/20 09:20:32;;;;;;;6.97;4.40;;;10.30;61.90;;;;;;5052658;28;20036;-70
2023/04/20 09:23:10;;;;;;;5.68;4.10;;;10.40;61.60;;;;;;5050472;28;20029;-69
2023/04/20 09:25:36;;;;;;;5.60;4.57;;;10.60;61.20;;;;;;5051860;28;20029;-68
2023/04/20 09:28:02;;;;;;;5.30;4.00;;;10.60;61.00;;;;;;5043866;28;20048;-68
2023/04/20 09:30:39;;;;;;;6.82;5.00;;;10.60;60.90;;;;;;5052284;28;20049;-69
2023/04/20 09:33:10;;;;;;;6.95;4.40;;;10.30;61.20;;;;;;5051023;28;20040;-70
2023/04/20 09:35:40;;;;;;;6.90;4.97;;;10.30;61.70;;;;;;5051035;28;20098;-70
2023/04/20 09:38:07;;;;;;;7.00;4.60;;;10.30;61.40;;;;;;5050854;28;20040;-70
2023/04/20 09:40:34;;;;;;;6.07;4.28;;;10.30;61.70;;;;;;5051181;28;20021;-67
2023/04/20 09:43:17;;;;;;;5.88;4.00;;;10.30;61.60;;;;;;5050196;28;20024;-69
2023/04/20 09:45:42;;;;;;;6.50;4.82;;;10.30;62.00;;;;;;5050840;28;20642;-70
2023/04/20 09:48:08;;;;;;;6.65;4.90;;;10.20;62.30;;;;;;5050834;28;20024;-70
2023/04/20 09:50:36;;;;;;;7.43;4.97;;;10.10;62.70;;;;;;5050460;28;20021;-69
2023/04/20 09:53:05;;;;;;;5.60;4.22;;;10.00;63.00;;;;;;5050775;28;20028;-69
2023/04/20 09:55:31;;;;;;;6.28;4.65;;;10.00;63.10;;;;;;5036149;28;20746;-70
2023/04/20 09:57:58;;;;;;;5.50;3.90;;;10.00;63.10;;;;;;5049235;28;20491;-68
2023/04/20 10:00:23;;;;;;;8.38;4.50;;;10.20;62.80;;;;;;5045676;28;20021;-69
2023/04/20 10:02:50;;;;;;;6.40;4.45;;;10.30;62.00;;;;;;5046499;28;20094;-68
2023/04/20 10:05:15;;;;;;;5.97;4.97;;;10.30;61.90;;;;;;5045694;28;20035;-68
2023/04/20 10:07:41;;;;;;;6.85;4.93;;;10.30;61.10;;;;;;5046878;28;20033;-69
2023/04/20 10:10:12;;;;;;;5.53;4.43;;;10.40;61.50;;;;;;5046988;28;20104;-70
2023/04/20 10:12:51;;;;;;;6.88;4.78;;;10.40;61.30;;;;;;5047490;28;20029;-70
2023/04/20 10:15:17;;;;;;;7.40;4.35;;;10.60;60.80;;;;;;5029788;28;20025;-69
2023/04/20 10:17:43;;;;;;;7.35;4.75;;;10.70;60.80;;;;;;5044640;28;20025;-70
2023/04/20 10:20:19;;;;;;;7.38;4.50;;;10.60;60.20;;;;;;5050325;28;20111;-70
2023/04/20 10:22:44;;;;;;;4.97;4.00;;;10.50;60.00;;;;;;5050444;28;20024;-70
2023/04/20 10:25:28;;;;;;;5.82;4.05;;;10.50;60.20;;;;;;5051152;28;20043;-70
2023/04/20 10:27:59;;;;;;;5.45;4.15;;;10.80;59.90;;;;;;5048254;28;20041;-70
2023/04/20 10:30:28;;;;;;;7.25;4.18;;;11.00;59.40;;;;;;5068810;28;20028;-69
2023/04/20 10:33:11;;;;;;;5.38;4.10;;;11.00;58.80;;;;;;5046394;28;20479;-69
2023/04/20 10:35:53;;;;;;;5.72;3.67;;;11.10;59.20;;;;;;5044612;28;20021;-69
2023/04/20 10:38:34;;;;;;;4.93;3.50;;;11.30;58.80;;;;;;5039287;28;20021;-70
2023/04/20 10:41:10;;;;;;;7.45;4.40;;;11.60;58.00;;;;;;5049951;28;20383;-71
2023/04/20 10:43:42;;;;;;;7.13;3.75;;;11.70;56.60;;;;;;5035780;28;20495;-70
2023/04/20 10:46:21;;;;;;;6.37;4.10;;;11.60;56.80;;;;;;5050207;28;20112;-70
2023/04/20 10:48:54;;;;;;;4.70;4.20;;;11.60;57.20;;;;;;5047854;28;20025;-69
2023/04/20 10:51:20;;;;;;;4.95;3.70;;;11.50;56.90;;;;;;5047722;28;20549;-69
2023/04/20 10:53:59;;;;;;;5.05;4.10;;;11.50;57.10;;;;;;5049069;28;20021;-69
2023/04/20 10:56:26;;;;;;;5.28;3.60;;;11.50;56.50;;;;;;5033353;28;20391;-69
2023/04/20 10:58:52;;;;;;;4.85;4.00;;;11.70;56.40;;;;;;5047600;28;20032;-70
2023/04/20 11:01:18;;;;;;;4.53;3.50;;;11.80;56.20;;;;;;5041699;28;20025;-69
2023/04/20 11:03:50;;;;;;;6.60;4.30;;;11.90;56.30;;;;;;5049699;28;20399;-70
2023/04/20 11:06:16;;;;;;;5.05;4.18;;;11.70;55.40;;;;;;5049466;28;20589;-70
2023/04/20 11:08:42;;;;;;;5.15;4.30;;;11.60;55.20;;;;;;5040895;28;20061;-69
2023/04/20 11:11:23;;;;;;;4.38;3.58;;;11.40;55.10;;;;;;5048038;28;20059;-69
2023/04/20 11:13:50;;;;;;;5.43;4.13;;;11.20;55.90;;;;;;5047412;28;20110;-70
2023/04/20 11:16:16;;;;;;;6.93;4.20;;;11.10;56.10;;;;;;5040003;28;20025;-70
2023/04/20 11:18:50;;;;;;;5.85;4.00;;;11.10;56.30;;;;;;5049425;28;20028;-69
2023/04/20 11:21:15;;;;;;;5.80;4.45;;;11.00;56.50;;;;;;5046542;28;20439;-68
2023/04/20 11:23:42;;;;;;;6.88;4.47;;;10.90;56.80;;;;;;5047523;28;20055;-69
2023/04/20 11:26:08;;;;;;;5.28;4.13;;;10.90;57.30;;;;;;5046534;28;20411;-68
2023/04/20 11:28:33;;;;;;;5.55;3.78;;;11.00;57.40;;;;;;5047211;28;20017;-69
2023/04/20 11:31:00;;;;;;;5.35;4.20;;;11.20;57.50;;;;;;5038636;28;20545;-70
2023/04/20 11:33:27;;;;;;;4.97;3.80;;;11.30;57.00;;;;;;5050423;28;20032;-68
2023/04/20 11:35:55;;;;;;;5.50;4.03;;;11.40;57.00;;;;;;5050364;28;20356;-69
2023/04/20 11:38:31;;;;;;;5.03;4.18;;;11.50;56.70;;;;;;5050108;28;20021;-68
2023/04/20 11:41:03;;;;;;;4.82;4.05;;;11.60;56.60;;;;;;5050408;28;20365;-69
2023/04/20 11:43:32;;;;;;;5.83;4.60;;;11.50;56.20;;;;;;5037173;28;20083;-67
2023/04/20 11:45:58;;;;;;;6.22;4.38;;;11.50;56.50;;;;;;5039765;28;20267;-68
2023/04/20 11:48:24;;;;;;;5.95;4.43;;;11.40;56.60;;;;;;5032725;28;20615;-69
2023/04/20 11:50:50;;;;;;;6.50;4.60;;;11.30;56.80;;;;;;5050370;28;20017;-69
2023/04/20 11:53:16;;;;;;;7.18;4.63;;;11.20;57.40;;;;;;5050347;28;20053;-68
2023/04/20 11:55:42;;;;;;;5.93;4.40;;;11.10;58.10;;;;;;5050464;28;20032;-70
2023/04/20 11:58:07;;;;;;;5.80;3.65;;;11.40;57.90;;;;;;5050309;28;20025;-69
2023/04/20 12:00:34;;;;;;;5.63;4.00;;;11.50;57.60;;;;;;5047109;28;20484;-69
2023/04/20 12:03:00;;;;;;;6.75;4.63;;;11.60;57.60;;;;;;5040086;28;20021;-68
2023/04/20 12:05:27;;;;;;;5.45;4.60;;;11.50;57.30;;;;;;5044765;28;20044;-69
2023/04/20 12:07:52;;;;;;;6.95;5.15;;;11.40;57.20;;;;;;5050072;28;20041;-69
2023/04/20 12:10:18;;;;;;;6.47;5.22;;;11.10;57.60;;;;;;5038297;28;20368;-69
2023/04/20 12:12:43;;;;;;;6.93;5.53;;;11.00;58.00;;;;;;5050201;28;20538;-66
2023/04/20 12:15:09;;;;;;;6.15;4.95;;;11.00;58.10;;;;;;5048664;28;20033;-70
2023/04/20 12:17:35;;;;;;;9.75;5.13;;;11.00;58.40;;;;;;5047837;28;20237;-68
2023/04/20 12:20:01;;;;;;;6.50;5.30;;;11.00;58.30;;;;;;5034181;28;20029;-67
2023/04/20 12:22:26;;;;;;;7.65;5.15;;;11.00;58.10;;;;;;5053809;28;20016;-68
2023/04/20 12:24:52;;;;;;;6.20;4.97;;;11.00;58.00;;;;;;5053944;28;20458;-69
2023/04/20 12:27:18;;;;;;;6.75;5.38;;;11.00;58.10;;;;;;5054117;28;20049;-68
2023/04/20 12:29:44;;;;;;;13.18;6.82;;;11.00;58.10;;;;;;5053890;28;20025;-69
2023/04/20 12:32:10;;;;;;;6.63;5.05;;;11.20;58.00;;;;;;5030981;28;20031;-67
2023/04/20 12:34:35;;;;;;;6.30;5.28;;;11.30;57.80;;;;;;5043599;28;20503;-69
2023/04/20 12:37:01;;;;;;;6.13;4.88;;;11.30;57.70;;;;;;5047965;28;20108;-69
2023/04/20 12:39:26;;;;;;;6.35;4.78;;;11.40;57.80;;;;;;5051448;28;20021;-67
2023/04/20 12:41:52;;;;;;;6.97;5.28;;;11.60;57.60;;;;;;5053470;28;20021;-68
2023/04/20 12:44:17;;;;;;;6.95;5.35;;;11.50;57.70;;;;;;5053744;28;20029;-69
2023/04/20 12:46:43;;;;;;;7.72;5.50;;;11.40;57.60;;;;;;5053632;28;20075;-67
2023/04/20 12:49:08;;;;;;;8.05;5.00;;;11.40;57.70;;;;;;5053628;28;20033;-68